Time;durP1;ratioP1;P1;durP2;ratioP2;P2;SDS_P1;SDS_P2;PMS_P1;PMS_P2;Temp;Humidity;BMP_temperature;BMP_pressure;BME280_temperature;BME280_humidity;BME280_pressure;Samples;Min_cycle;Max_cycle;Signal;HPM_P1;HPM_P2
2021/10/08 00:01:41;;;;;;;6.68;2.47;;;;;;;25.70;19.52;99263.59;5081549;28;20040;-88
2021/10/08 00:04:07;;;;;;;8.30;3.00;;;;;;;25.33;19.87;99270.75;5086065;28;20024;-87
2021/10/08 00:06:33;;;;;;;4.50;2.58;;;;;;;25.10;20.10;99267.72;5094239;28;20036;-88
2021/10/08 00:08:59;;;;;;;4.82;2.92;;;;;;;25.01;20.41;99272.19;5088439;28;20032;-88
2021/10/08 00:11:26;;;;;;;10.50;5.22;;;;;;;24.98;20.23;99275.81;5075424;28;20689;-88
2021/10/08 00:13:53;;;;;;;9.50;2.78;;;;;;;25.00;20.05;99270.59;5084200;28;20115;-88
2021/10/08 00:16:19;;;;;;;10.15;3.80;;;;;;;25.22;20.08;99270.03;5077593;28;20546;-88
2021/10/08 00:18:46;;;;;;;7.15;2.65;;;;;;;25.38;19.71;99269.50;5078238;28;20119;-88
2021/10/08 00:21:12;;;;;;;4.07;2.50;;;;;;;25.38;19.58;99270.31;5077595;28;20037;-88
2021/10/08 00:23:38;;;;;;;7.65;3.45;;;;;;;25.25;19.98;99272.00;5088020;28;20039;-88
2021/10/08 00:26:05;;;;;;;5.15;2.60;;;;;;;25.17;19.90;99276.09;5085768;28;20040;-86
2021/10/08 00:28:32;;;;;;;12.10;3.13;;;;;;;25.14;19.84;99276.91;5087598;28;20051;-86
2021/10/08 00:30:58;;;;;;;9.30;3.15;;;;;;;24.95;20.36;99277.44;5083986;28;20461;-86
2021/10/08 00:33:24;;;;;;;7.43;2.42;;;;;;;25.09;19.80;99271.72;5085138;28;20032;-86
2021/10/08 00:35:50;;;;;;;5.60;2.88;;;;;;;25.34;19.90;99275.13;5080238;28;20033;-87
2021/10/08 00:38:16;;;;;;;7.00;2.85;;;;;;;25.50;19.79;99277.47;5082978;28;20032;-86
2021/10/08 00:40:46;;;;;;;6.40;2.83;;;;;;;25.56;19.55;99277.81;5090113;28;20039;-87
2021/10/08 00:43:16;;;;;;;4.40;2.28;;;;;;;25.28;19.59;99276.81;5084514;28;20028;-87
2021/10/08 00:45:42;;;;;;;4.05;2.13;;;;;;;25.15;19.94;99277.72;5086339;28;20371;-87
2021/10/08 00:48:09;;;;;;;5.85;3.13;;;;;;;24.86;20.43;99281.91;5079205;28;20082;-86
2021/10/08 00:50:41;;;;;;;4.28;2.47;;;;;;;24.76;20.34;99282.75;5082148;28;20102;-87
2021/10/08 00:53:07;;;;;;;7.05;2.10;;;;;;;25.02;19.84;99285.81;5083117;28;20039;-87
2021/10/08 00:55:35;;;;;;;7.03;2.10;;;;;;;25.39;19.12;99283.13;5079841;28;20078;-87
2021/10/08 00:58:01;;;;;;;3.60;1.90;;;;;;;25.68;18.99;99292.16;5082114;28;20036;-86
2021/10/08 01:00:27;;;;;;;5.38;2.50;;;;;;;25.83;18.65;99293.63;5083205;28;20066;-86
2021/10/08 01:02:53;;;;;;;7.68;2.20;;;;;;;25.58;18.67;99297.91;5096194;28;20057;-86
2021/10/08 01:05:20;;;;;;;6.10;2.05;;;;;;;25.54;18.51;99294.28;5089311;28;20074;-86
2021/10/08 01:07:46;;;;;;;6.30;2.63;;;;;;;25.69;18.50;99302.22;5086624;28;20036;-86
2021/10/08 01:10:12;;;;;;;5.90;2.60;;;;;;;25.71;18.42;99291.34;5087303;28;20081;-86
2021/10/08 01:12:39;;;;;;;5.65;2.58;;;;;;;25.28;18.87;99293.66;5078220;28;20038;-87
2021/10/08 01:15:06;;;;;;;3.88;2.03;;;;;;;24.96;19.24;99292.28;5081207;28;20028;-86
2021/10/08 01:17:32;;;;;;;3.60;2.17;;;;;;;25.20;19.18;99297.75;5081054;28;20043;-87
2021/10/08 01:20:10;;;;;;;3.75;2.10;;;;;;;25.16;19.43;99291.34;5086862;28;20440;-87
2021/10/08 01:22:36;;;;;;;4.32;2.47;;;;;;;25.07;19.21;99288.19;5087502;28;20496;-87
2021/10/08 01:25:04;;;;;;;6.03;2.45;;;;;;;24.80;19.36;99298.41;5085855;28;20032;-87
2021/10/08 01:27:30;;;;;;;3.65;2.22;;;;;;;24.99;19.20;99288.66;5085443;28;20036;-87
2021/10/08 01:29:59;;;;;;;5.15;2.33;;;;;;;24.90;19.33;99289.09;5080941;28;20036;-87
2021/10/08 01:32:27;;;;;;;3.72;2.10;;;;;;;24.69;19.02;99290.00;5084125;28;20052;-87
2021/10/08 01:34:54;;;;;;;7.55;2.40;;;;;;;24.48;19.48;99289.31;5087226;28;20066;-87
2021/10/08 01:37:20;;;;;;;4.18;2.83;;;;;;;24.25;20.04;99297.44;5077782;28;20112;-87
2021/10/08 01:39:47;;;;;;;6.07;2.95;;;;;;;24.40;19.80;99310.19;5084373;28;20032;-86
2021/10/08 01:42:13;;;;;;;4.90;2.42;;;;;;;24.62;19.34;99304.06;5082479;28;20088;-86
2021/10/08 01:44:41;;;;;;;6.07;2.55;;;;;;;24.74;19.36;99300.00;5084311;28;20534;-86
2021/10/08 01:47:07;;;;;;;6.20;2.92;;;;;;;24.93;18.96;99310.78;5079927;28;20033;-86
2021/10/08 01:49:33;;;;;;;4.03;2.25;;;;;;;25.18;18.90;99310.63;5084109;28;20032;-87
2021/10/08 01:52:00;;;;;;;9.70;2.65;;;;;;;25.28;18.39;99307.72;5082240;28;20119;-86
2021/10/08 01:54:27;;;;;;;4.53;2.35;;;;;;;25.13;18.72;99309.06;5082500;28;20039;-87
2021/10/08 01:56:53;;;;;;;5.10;2.63;;;;;;;25.05;18.67;99295.44;5085421;28;20044;-87
2021/10/08 01:59:19;;;;;;;7.38;2.58;;;;;;;25.03;18.69;99300.69;5086529;28;20457;-88
2021/10/08 02:01:46;;;;;;;6.05;2.63;;;;;;;25.08;18.71;99301.06;5082278;28;20036;-88
2021/10/08 02:04:13;;;;;;;7.40;2.55;;;;;;;25.00;19.27;99307.91;5082859;28;20021;-87
2021/10/08 02:06:39;;;;;;;4.63;2.78;;;;;;;24.86;18.94;99310.00;5082735;28;20036;-87
2021/10/08 02:09:06;;;;;;;4.75;2.90;;;;;;;24.81;19.36;99311.22;5085457;28;20044;-87
2021/10/08 02:11:33;;;;;;;4.80;2.17;;;;;;;24.77;19.09;99304.84;5081524;28;20032;-87
2021/10/08 02:13:59;;;;;;;8.38;2.97;;;;;;;24.66;19.12;99315.31;5076747;28;20040;-87
2021/10/08 02:16:26;;;;;;;5.05;2.10;;;;;;;24.53;19.52;99323.38;5081617;28;20436;-87
2021/10/08 02:18:54;;;;;;;8.30;2.50;;;;;;;24.71;19.31;99323.31;5078658;28;20489;-87
2021/10/08 02:21:22;;;;;;;3.38;2.30;;;;;;;24.98;19.15;99315.97;5083082;28;20050;-87
2021/10/08 02:23:49;;;;;;;5.05;2.65;;;;;;;24.96;19.19;99326.00;5083457;28;20055;-87
2021/10/08 02:26:17;;;;;;;5.55;2.30;;;;;;;24.77;19.32;99324.50;5084678;28;20436;-87
2021/10/08 02:28:44;;;;;;;8.98;3.05;;;;;;;24.72;19.08;99328.50;5078657;28;20040;-88
2021/10/08 02:31:10;;;;;;;7.30;2.17;;;;;;;24.62;19.11;99323.75;5089811;28;20025;-88
2021/10/08 02:33:37;;;;;;;5.55;2.65;;;;;;;24.50;19.74;99320.59;5085272;28;20061;-89
2021/10/08 02:36:04;;;;;;;9.63;2.53;;;;;;;24.52;19.53;99319.00;5085308;28;20052;-88
2021/10/08 02:38:31;;;;;;;6.78;2.67;;;;;;;24.64;19.29;99326.16;5087481;28;20039;-87
2021/10/08 02:40:57;;;;;;;7.97;2.80;;;;;;;24.62;19.26;99323.75;5087793;28;20023;-87
2021/10/08 02:43:24;;;;;;;2.85;2.28;;;;;;;24.54;19.45;99322.19;5081255;28;20489;-87
2021/10/08 02:45:50;;;;;;;4.85;2.28;;;;;;;24.25;19.74;99328.31;5085133;28;20054;-87
2021/10/08 02:48:17;;;;;;;5.78;2.28;;;;;;;24.20;19.64;99323.88;5082892;28;20561;-87
2021/10/08 02:50:43;;;;;;;8.27;2.22;;;;;;;24.38;19.73;99327.47;5081207;28;20052;-87
2021/10/08 02:53:09;;;;;;;4.88;2.53;;;;;;;24.17;19.83;99318.28;5080956;28;20028;-87
2021/10/08 02:55:35;;;;;;;8.27;3.10;;;;;;;24.10;20.11;99326.72;5086230;28;20111;-87
2021/10/08 02:58:02;;;;;;;4.35;2.47;;;;;;;24.10;20.02;99332.34;5087578;28;20051;-87
2021/10/08 03:00:28;;;;;;;4.90;2.63;;;;;;;24.26;20.20;99338.31;5086160;28;20473;-87
2021/10/08 03:02:54;;;;;;;7.47;3.17;;;;;;;24.19;19.67;99332.72;5091258;28;20044;-86
2021/10/08 03:05:20;;;;;;;3.90;2.35;;;;;;;24.08;19.66;99338.38;5088770;28;20481;-86
2021/10/08 03:07:46;;;;;;;4.63;2.03;;;;;;;24.22;19.81;99332.72;5088054;28;20088;-87
2021/10/08 03:10:18;;;;;;;6.78;2.33;;;;;;;24.56;19.60;99339.41;5086592;28;20024;-86
2021/10/08 03:12:45;;;;;;;7.13;2.30;;;;;;;24.76;18.97;99336.97;5079718;28;20123;-86
2021/10/08 03:15:12;;;;;;;3.65;2.60;;;;;;;24.98;18.88;99332.03;5090421;28;20385;-86
2021/10/08 03:17:38;;;;;;;8.80;3.17;;;;;;;25.05;18.35;99337.59;5077706;28;20031;-86
2021/10/08 03:20:06;;;;;;;4.65;2.22;;;;;;;25.23;18.10;99336.28;5087487;28;20040;-86
2021/10/08 03:22:32;;;;;;;5.03;2.13;;;;;;;25.48;17.68;99353.00;5084597;28;20020;-86
2021/10/08 03:24:58;;;;;;;6.15;2.53;;;;;;;25.60;17.97;99348.91;5090290;28;20125;-86
2021/10/08 03:27:24;;;;;;;4.10;2.60;;;;;;;25.50;17.50;99344.16;5085978;28;20501;-86
2021/10/08 03:29:51;;;;;;;6.82;3.08;;;;;;;24.97;18.29;99348.06;5087559;28;20038;-86
2021/10/08 03:32:17;;;;;;;5.97;2.30;;;;;;;24.75;18.63;99343.75;5087093;28;20160;-86
2021/10/08 03:34:43;;;;;;;4.60;2.50;;;;;;;24.88;18.73;99347.72;5087218;28;20032;-86
2021/10/08 03:37:13;;;;;;;2.22;1.73;;;;;;;24.90;18.55;99348.09;5085056;28;20052;-86
2021/10/08 03:39:42;;;;;;;5.35;2.30;;;;;;;24.77;18.19;99346.16;5088384;28;20374;-86
2021/10/08 03:42:14;;;;;;;4.30;2.65;;;;;;;24.24;19.03;99351.97;5088433;28;20033;-86
2021/10/08 03:44:42;;;;;;;4.97;2.10;;;;;;;24.09;19.15;99355.97;5080918;28;20028;-86
2021/10/08 03:47:15;;;;;;;4.13;2.83;;;;;;;24.08;19.13;99360.00;5080337;28;20032;-86
2021/10/08 03:49:42;;;;;;;5.88;3.03;;;;;;;24.00;19.21;99354.38;5089928;28;20122;-86
2021/10/08 03:52:09;;;;;;;7.00;2.63;;;;;;;24.21;19.11;99359.19;5081837;28;20044;-86
2021/10/08 03:54:35;;;;;;;4.35;2.25;;;;;;;24.21;18.67;99358.38;5088316;28;20035;-86
2021/10/08 03:57:01;;;;;;;6.10;2.50;;;;;;;23.69;19.29;99360.81;5081885;28;20078;-85
2021/10/08 03:59:27;;;;;;;5.18;3.40;;;;;;;23.44;19.80;99362.00;5085591;28;20020;-86
2021/10/08 04:01:55;;;;;;;6.22;3.17;;;;;;;23.90;19.61;99363.59;5081713;28;20111;-86
2021/10/08 04:04:21;;;;;;;5.18;2.42;;;;;;;24.30;19.45;99367.16;5078823;28;20079;-85
2021/10/08 04:06:48;;;;;;;4.15;2.33;;;;;;;24.33;18.90;99364.38;5076730;28;20402;-85
2021/10/08 04:09:15;;;;;;;5.20;2.50;;;;;;;24.18;18.88;99364.81;5078723;28;20020;-88
2021/10/08 04:11:42;;;;;;;4.10;1.95;;;;;;;24.02;19.05;99366.00;5078814;28;20153;-88
2021/10/08 04:14:09;;;;;;;3.95;2.25;;;;;;;24.04;19.02;99362.78;5090657;28;20039;-85
2021/10/08 04:16:36;;;;;;;5.15;2.15;;;;;;;24.17;19.18;99366.81;5091909;28;20040;-84
2021/10/08 04:19:04;;;;;;;4.93;2.75;;;;;;;24.38;19.11;99365.97;5085162;28;20032;-85
2021/10/08 04:21:30;;;;;;;3.33;2.03;;;;;;;24.49;18.93;99367.53;5090766;28;20063;-85
2021/10/08 04:23:56;;;;;;;6.63;4.05;;;;;;;23.19;20.00;99367.53;5081577;28;20039;-85
2021/10/08 04:26:22;;;;;;;4.35;2.58;;;;;;;23.00;20.26;99379.09;5081549;28;20024;-85
2021/10/08 04:28:48;;;;;;;6.18;2.80;;;;;;;23.23;20.51;99385.16;5090410;28;20024;-87
2021/10/08 04:31:14;;;;;;;15.73;4.00;;;;;;;23.00;20.69;99390.28;5088521;28;20491;-87
2021/10/08 04:33:40;;;;;;;11.75;3.13;;;;;;;23.34;20.28;99384.00;5082561;28;20032;-85
2021/10/08 04:36:07;;;;;;;6.38;3.28;;;;;;;23.83;19.93;99385.22;5082217;28;20071;-85
2021/10/08 04:38:33;;;;;;;5.28;2.95;;;;;;;23.96;19.70;99387.25;5083138;28;20429;-86
2021/10/08 04:41:00;;;;;;;4.40;2.28;;;;;;;23.86;19.40;99392.84;5075813;28;20064;-86
2021/10/08 04:43:27;;;;;;;3.65;2.25;;;;;;;23.98;19.25;99393.25;5077539;28;20126;-81
2021/10/08 04:45:53;;;;;;;7.65;2.78;;;;;;;24.30;18.74;99395.25;5080099;28;20032;-81
2021/10/08 04:48:19;;;;;;;3.75;2.25;;;;;;;24.34;18.42;99396.06;5082203;28;20024;-81
2021/10/08 04:50:45;;;;;;;2.70;2.13;;;;;;;24.49;18.22;99390.00;5089795;28;20154;-81
2021/10/08 04:53:19;;;;;;;6.05;2.42;;;;;;;24.53;17.91;99395.56;5082268;28;20119;-81
2021/10/08 04:55:47;;;;;;;3.70;2.63;;;;;;;24.66;18.32;99400.38;5081963;28;20036;-81
2021/10/08 04:58:13;;;;;;;4.75;2.13;;;;;;;24.65;18.45;99404.38;5076537;28;20400;-81
2021/10/08 05:00:40;;;;;;;7.70;2.70;;;;;;;24.27;18.77;99410.09;5078740;28;20103;-81
2021/10/08 05:03:17;;;;;;;4.72;2.88;;;;;;;23.92;18.83;99416.50;5086302;28;20115;-82
2021/10/08 05:05:47;;;;;;;7.30;3.20;;;;;;;23.49;19.68;99412.88;5084313;28;20119;-82
2021/10/08 05:08:15;;;;;;;11.57;3.23;;;;;;;23.63;19.33;99410.09;5080720;28;20036;-81
2021/10/08 05:10:42;;;;;;;4.72;2.67;;;;;;;23.64;19.55;99411.66;5084512;28;20358;-81
2021/10/08 05:13:08;;;;;;;6.03;2.80;;;;;;;23.84;19.06;99421.31;5087705;28;20028;-81
2021/10/08 05:15:34;;;;;;;2.83;2.20;;;;;;;24.19;18.95;99419.72;5081510;28;20516;-81
2021/10/08 05:18:00;;;;;;;6.90;2.40;;;;;;;24.08;18.75;99424.53;5081079;28;20039;-81
2021/10/08 05:20:27;;;;;;;5.38;2.20;;;;;;;24.07;19.13;99440.56;5078646;28;20037;-81
2021/10/08 05:22:53;;;;;;;4.50;2.85;;;;;;;24.22;18.78;99435.75;5079464;28;20058;-81
2021/10/08 05:25:19;;;;;;;4.10;2.00;;;;;;;24.36;18.78;99436.56;5081838;28;20039;-81
2021/10/08 05:27:45;;;;;;;3.45;2.03;;;;;;;24.53;18.58;99432.88;5073171;28;20394;-81
2021/10/08 05:30:13;;;;;;;9.70;2.75;;;;;;;24.40;19.02;99444.94;5092392;28;20024;-81
2021/10/08 05:32:40;;;;;;;5.15;2.75;;;;;;;24.19;19.22;99445.78;5092675;28;20074;-81
2021/10/08 05:35:08;;;;;;;7.85;3.67;;;;;;;24.02;19.43;99441.75;5093626;28;20036;-81
2021/10/08 05:37:34;;;;;;;5.35;3.42;;;;;;;24.01;19.68;99445.75;5093215;28;20032;-81
2021/10/08 05:40:00;;;;;;;6.18;3.15;;;;;;;24.22;19.65;99445.00;5093114;28;20024;-81
2021/10/08 05:42:27;;;;;;;9.55;4.00;;;;;;;24.28;19.83;99451.78;5092428;28;20096;-81
2021/10/08 05:44:53;;;;;;;9.10;4.15;;;;;;;24.53;19.66;99444.13;5063757;28;20021;-81
2021/10/08 05:47:19;;;;;;;7.65;4.10;;;;;;;24.82;19.29;99453.31;5072597;28;20068;-81
2021/10/08 05:49:45;;;;;;;6.13;3.03;;;;;;;25.04;19.10;99452.00;5072939;28;20032;-82
2021/10/08 05:52:11;;;;;;;5.70;3.38;;;;;;;25.31;18.91;99453.09;5072526;28;20082;-81
2021/10/08 05:54:37;;;;;;;7.57;3.33;;;;;;;25.40;19.07;99458.28;5072772;28;20028;-81
2021/10/08 05:57:05;;;;;;;3.88;2.75;;;;;;;25.47;18.75;99449.03;5072551;28;20032;-81
2021/10/08 05:59:31;;;;;;;7.80;4.22;;;;;;;25.09;19.47;99456.41;5073416;28;20036;-81
2021/10/08 06:01:57;;;;;;;8.45;4.28;;;;;;;24.53;20.64;99460.97;5076644;28;20032;-81
2021/10/08 06:04:23;;;;;;;6.80;3.88;;;;;;;23.88;21.51;99469.00;5096752;28;20032;-81
2021/10/08 06:06:49;;;;;;;9.70;3.88;;;;;;;23.64;21.85;99458.56;5079288;28;20417;-81
2021/10/08 06:09:15;;;;;;;13.43;7.13;;;;;;;22.88;22.60;99466.25;5076454;28;20032;-81
2021/10/08 06:11:41;;;;;;;11.20;5.38;;;;;;;23.69;21.96;99458.13;5076291;28;20075;-81
2021/10/08 06:14:07;;;;;;;9.52;5.18;;;;;;;23.68;22.30;99467.78;5075989;28;20024;-81
2021/10/08 06:16:33;;;;;;;13.10;6.80;;;;;;;21.03;25.39;99479.72;5076883;28;20363;-81
2021/10/08 06:19:00;;;;;;;9.57;5.43;;;;;;;20.63;26.23;99485.97;5095952;28;20077;-81
2021/10/08 06:21:27;;;;;;;14.80;6.13;;;;;;;20.13;26.72;99477.19;5085279;28;20036;-81
2021/10/08 06:23:53;;;;;;;10.73;5.85;;;;;;;19.85;27.46;99481.13;5076229;28;20037;-81
2021/10/08 06:26:19;;;;;;;11.68;5.95;;;;;;;18.69;29.36;99486.31;5076083;28;20032;-81
2021/10/08 06:28:45;;;;;;;13.10;5.45;;;;;;;19.08;29.42;99490.75;5089596;28;20028;-81
2021/10/08 06:31:11;;;;;;;14.93;6.68;;;;;;;19.46;28.96;99487.97;5096644;28;20039;-82
2021/10/08 06:33:37;;;;;;;11.75;6.95;;;;;;;18.88;28.94;99486.34;5095414;28;20031;-81
2021/10/08 06:36:04;;;;;;;12.35;6.88;;;;;;;18.69;29.99;99494.66;5095567;28;20493;-81
2021/10/08 06:38:30;;;;;;;13.15;6.50;;;;;;;19.52;29.33;99500.41;5096626;28;20385;-81
2021/10/08 06:40:56;;;;;;;11.35;6.88;;;;;;;20.59;27.86;99496.28;5095883;28;20440;-81
2021/10/08 06:43:22;;;;;;;19.13;7.85;;;;;;;19.23;28.61;99492.63;5093366;28;20043;-81
2021/10/08 06:45:48;;;;;;;13.40;7.63;;;;;;;20.16;28.56;99499.56;5092936;28;20036;-81
2021/10/08 06:48:14;;;;;;;12.02;6.70;;;;;;;19.83;29.21;99489.03;5077235;28;20107;-81
2021/10/08 06:50:41;;;;;;;15.85;8.55;;;;;;;19.07;29.73;99491.91;5088484;28;20052;-81
2021/10/08 06:53:09;;;;;;;15.52;8.25;;;;;;;19.00;30.01;99495.34;5094908;28;20032;-81
2021/10/08 06:55:36;;;;;;;14.82;7.88;;;;;;;20.58;28.14;99502.25;5095725;28;20131;-81
2021/10/08 06:58:06;;;;;;;12.65;6.53;;;;;;;21.21;27.00;99500.31;5096034;28;20043;-81
2021/10/08 07:00:32;;;;;;;19.65;9.07;;;;;;;22.94;24.58;99501.91;5096020;28;20030;-82
2021/10/08 07:02:58;;;;;;;12.55;7.30;;;;;;;22.89;24.63;99495.88;5095847;28;20393;-82
2021/10/08 07:05:25;;;;;;;19.95;8.50;;;;;;;21.89;25.96;99507.50;5079409;28;20028;-81
2021/10/08 07:07:52;;;;;;;19.45;9.38;;;;;;;19.32;29.29;99502.38;5076342;28;20042;-81
2021/10/08 07:10:19;;;;;;;20.67;6.13;;;;;;;19.97;29.14;99508.81;5075742;28;20093;-81
2021/10/08 07:12:46;;;;;;;15.35;7.85;;;;;;;20.25;28.30;99511.28;5075376;28;20032;-81
2021/10/08 07:15:17;;;;;;;17.38;8.20;;;;;;;20.31;28.41;99506.19;5081093;28;20107;-81
2021/10/08 07:17:47;;;;;;;12.60;7.00;;;;;;;20.73;28.16;99511.59;5096269;28;20416;-82
2021/10/08 07:20:14;;;;;;;12.05;7.47;;;;;;;20.88;27.39;99516.22;5093054;28;20032;-82
2021/10/08 07:22:40;;;;;;;12.32;6.97;;;;;;;21.93;27.42;99508.34;5093875;28;20066;-82
2021/10/08 07:25:07;;;;;;;12.10;5.90;;;;;;;22.34;26.48;99511.88;5089297;28;20047;-82
2021/10/08 07:27:34;;;;;;;12.73;6.18;;;;;;;24.08;23.97;99501.13;5075214;28;20153;-82
2021/10/08 07:30:01;;;;;;;14.60;5.13;;;;;;;24.66;22.94;99507.09;5074966;28;20401;-81
2021/10/08 07:32:28;;;;;;;13.73;6.20;;;;;;;24.20;24.09;99505.53;5075033;28;20040;-81
2021/10/08 07:34:55;;;;;;;12.57;6.25;;;;;;;24.01;23.52;99512.31;5074976;28;20029;-81
2021/10/08 07:37:21;;;;;;;13.65;6.68;;;;;;;22.70;25.70;99513.78;5074957;28;20425;-81
2021/10/08 07:39:47;;;;;;;8.68;5.53;;;;;;;24.57;23.52;99503.09;5085828;28;20054;-81
2021/10/08 07:42:13;;;;;;;12.88;5.78;;;;;;;25.34;23.31;99508.50;5088995;28;20478;-81
2021/10/08 07:44:40;;;;;;;11.50;6.55;;;;;;;24.86;23.62;99515.09;5074593;28;20039;-81
2021/10/08 07:47:06;;;;;;;9.23;5.60;;;;;;;24.60;24.08;99519.13;5075072;28;20043;-81
2021/10/08 07:49:32;;;;;;;8.55;5.68;;;;;;;25.55;22.88;99521.72;5087596;28;20115;-82
2021/10/08 07:51:58;;;;;;;15.45;7.25;;;;;;;25.17;23.04;99517.81;5094546;28;20044;-81
2021/10/08 07:54:24;;;;;;;15.98;6.32;;;;;;;26.06;22.02;99509.72;5088841;28;20028;-82
2021/10/08 07:56:50;;;;;;;12.27;6.38;;;;;;;25.89;21.98;99517.09;5074222;28;20036;-81
2021/10/08 07:59:17;;;;;;;15.93;6.90;;;;;;;26.64;21.73;99511.69;5080249;28;20032;-81
2021/10/08 08:01:43;;;;;;;12.32;6.43;;;;;;;26.99;21.33;99507.72;5094601;28;20066;-82
2021/10/08 08:04:09;;;;;;;13.93;6.82;;;;;;;27.08;20.72;99511.63;5077693;28;20033;-82
2021/10/08 08:06:35;;;;;;;11.07;7.07;;;;;;;26.88;20.96;99519.13;5074630;28;20036;-81
2021/10/08 08:09:02;;;;;;;14.90;7.85;;;;;;;24.94;23.84;99528.75;5074057;28;20044;-81
2021/10/08 08:11:28;;;;;;;12.00;6.60;;;;;;;24.96;24.12;99523.50;5092587;28;20058;-81
2021/10/08 08:13:54;;;;;;;15.57;8.02;;;;;;;21.72;27.00;99533.25;5094573;28;20545;-81
2021/10/08 08:16:20;;;;;;;17.25;6.80;;;;;;;21.31;28.75;99535.97;5092745;28;20024;-81
2021/10/08 08:18:46;;;;;;;24.30;8.55;;;;;;;21.54;28.18;99529.47;5094523;28;20028;-81
2021/10/08 08:21:12;;;;;;;21.85;8.35;;;;;;;20.19;30.70;99539.81;5094021;28;20050;-81
2021/10/08 08:23:38;;;;;;;14.80;7.25;;;;;;;20.52;29.32;99535.22;5093853;28;20035;-81
2021/10/08 08:26:05;;;;;;;17.98;9.65;;;;;;;19.04;31.54;99549.09;5093068;28;20130;-81
2021/10/08 08:28:31;;;;;;;16.10;8.90;;;;;;;18.07;33.05;99537.22;5094034;28;20024;-81
2021/10/08 08:30:57;;;;;;;16.63;10.15;;;;;;;17.56;34.37;99544.59;5094147;28;20036;-81
2021/10/08 08:33:23;;;;;;;19.23;9.90;;;;;;;17.48;34.20;99532.44;5092247;28;20478;-81
2021/10/08 08:35:49;;;;;;;22.05;9.70;;;;;;;17.48;35.33;99545.56;5093812;28;20393;-81
2021/10/08 08:38:15;;;;;;;14.50;8.35;;;;;;;17.32;34.79;99531.59;5094307;28;20025;-81
2021/10/08 08:40:41;;;;;;;17.08;9.60;;;;;;;16.95;36.94;99550.34;5074965;28;20042;-81
2021/10/08 08:43:07;;;;;;;18.20;9.88;;;;;;;18.11;33.76;99546.47;5073980;28;20394;-81
2021/10/08 08:45:34;;;;;;;19.88;9.73;;;;;;;19.79;30.34;99534.75;5072256;28;20511;-81
2021/10/08 08:48:08;;;;;;;21.33;10.25;;;;;;;18.83;31.48;99537.53;5073652;28;20036;-81
2021/10/08 08:50:37;;;;;;;22.80;8.98;;;;;;;19.13;31.15;99535.81;5089886;28;20575;-81
2021/10/08 08:53:04;;;;;;;23.58;9.80;;;;;;;19.78;30.26;99538.69;5078712;28;20039;-81
2021/10/08 08:55:31;;;;;;;15.60;8.10;;;;;;;21.58;27.41;99533.09;5073495;28;20490;-81
2021/10/08 08:57:57;;;;;;;17.00;8.45;;;;;;;21.06;28.25;99545.22;5073299;28;20038;-81
2021/10/08 09:00:24;;;;;;;21.00;8.13;;;;;;;20.53;28.78;99542.44;5087175;28;20032;-81
2021/10/08 09:03:05;;;;;;;15.55;7.63;;;;;;;21.32;28.06;99536.78;5093346;28;20038;-81
2021/10/08 09:05:34;;;;;;;18.38;8.77;;;;;;;19.61;30.43;99534.41;5088734;28;20489;-81
2021/10/08 09:08:08;;;;;;;23.15;8.90;;;;;;;18.68;32.37;99529.19;5090381;28;20378;-81
2021/10/08 09:10:39;;;;;;;17.75;8.45;;;;;;;18.92;32.73;99540.09;5093515;28;20062;-81
2021/10/08 09:13:06;;;;;;;17.35;8.00;;;;;;;19.20;30.75;99541.53;5093634;28;20024;-81
2021/10/08 09:15:49;;;;;;;17.05;8.63;;;;;;;19.39;30.96;99551.06;5093664;28;20039;-81
2021/10/08 09:18:18;;;;;;;13.68;7.65;;;;;;;19.54;30.40;99548.19;5073089;28;20024;-81
2021/10/08 09:21:05;;;;;;;15.48;7.68;;;;;;;18.16;32.15;99543.41;5073007;28;20048;-81
2021/10/08 09:23:46;;;;;;;16.75;9.23;;;;;;;18.30;33.16;99550.13;5072487;28;20025;-81
2021/10/08 09:26:21;;;;;;;20.10;8.45;;;;;;;20.64;29.20;99535.03;5073810;28;20054;-81
2021/10/08 09:28:55;;;;;;;13.25;7.60;;;;;;;21.69;28.21;99534.81;5072925;28;20043;-81
2021/10/08 09:31:45;;;;;;;17.60;9.20;;;;;;;20.05;30.39;99545.97;5073113;28;20444;-81
2021/10/08 09:34:16;;;;;;;14.05;8.25;;;;;;;19.49;31.64;99540.13;5072456;28;20044;-81
2021/10/08 09:36:47;;;;;;;15.98;7.75;;;;;;;20.33;29.74;99551.25;5075870;28;20082;-81
2021/10/08 09:39:28;;;;;;;;;;;;;;;20.47;28.85;99545.91;5086138;28;20017;-81
2021/10/08 09:42:01;;;;;;;19.77;8.27;;;;;;;20.44;28.46;99544.66;5077047;28;19958;-81
2021/10/08 09:44:29;;;;;;;15.32;7.60;;;;;;;20.33;30.35;99556.81;5077410;28;20289;-81
2021/10/08 09:47:12;;;;;;;24.45;8.88;;;;;;;20.14;29.12;99554.09;5077062;28;20038;-81
2021/10/08 09:49:40;;;;;;;19.52;8.05;;;;;;;21.22;27.66;99555.00;5080886;28;20033;-81
2021/10/08 09:52:27;;;;;;;16.25;7.95;;;;;;;20.56;28.99;99547.25;5085922;28;20040;-81
2021/10/08 09:54:56;;;;;;;18.45;10.43;;;;;;;19.08;30.96;99558.34;5097354;28;20111;-81
2021/10/08 09:57:23;;;;;;;18.60;8.85;;;;;;;18.51;31.16;99561.81;5097325;28;20443;-81
2021/10/08 09:59:51;;;;;;;13.85;7.88;;;;;;;20.42;30.14;99554.59;5077078;28;20100;-81
2021/10/08 10:02:18;;;;;;;18.58;9.07;;;;;;;21.06;28.67;99556.38;5077105;28;20033;-81
2021/10/08 10:04:54;;;;;;;17.05;8.25;;;;;;;21.57;27.17;99549.06;5076625;28;20055;-81
2021/10/08 10:07:23;;;;;;;19.02;9.73;;;;;;;19.71;30.08;99549.72;5076853;28;20040;-82
2021/10/08 10:09:50;;;;;;;18.52;8.55;;;;;;;20.55;29.18;99551.22;5076991;28;20488;-82
2021/10/08 10:12:18;;;;;;;17.70;10.02;;;;;;;21.17;27.83;99551.75;5076714;28;20044;-81
2021/10/08 10:14:46;;;;;;;17.90;8.65;;;;;;;20.43;28.98;99545.03;5077111;28;20032;-81
2021/10/08 10:17:15;;;;;;;16.75;8.55;;;;;;;20.23;29.01;99543.53;5093338;28;20035;-81
2021/10/08 10:19:46;;;;;;;19.45;8.15;;;;;;;20.73;27.89;99547.88;5096866;28;20485;-81
2021/10/08 10:22:17;;;;;;;14.18;7.05;;;;;;;22.16;26.81;99539.72;5096917;28;20028;-81
2021/10/08 10:24:46;;;;;;;14.95;7.25;;;;;;;20.86;27.88;99535.34;5096549;28;20501;-81
2021/10/08 10:27:14;;;;;;;11.30;7.32;;;;;;;21.06;27.83;99539.63;5078904;28;20552;-82
2021/10/08 10:29:43;;;;;;;19.50;7.78;;;;;;;21.16;27.64;99531.41;5076250;28;20112;-81
2021/10/08 10:32:10;;;;;;;13.45;6.80;;;;;;;22.82;26.16;99533.06;5077011;28;20031;-81
2021/10/08 10:37:42;;;;;;;15.85;7.47;;;;;;;21.02;28.88;99549.91;5094337;28;20503;-82
2021/10/08 10:40:20;;;;;;;17.10;7.28;;;;;;;19.46;29.36;99537.28;5076097;28;20386;-82
2021/10/08 10:43:06;;;;;;;16.52;7.15;;;;;;;21.22;27.36;99541.03;5075989;28;20068;-82
2021/10/08 10:45:32;;;;;;;13.98;6.90;;;;;;;22.27;25.51;99534.19;5078358;28;20043;-81
2021/10/08 10:48:22;;;;;;;12.55;6.50;;;;;;;22.18;25.35;99540.13;5095845;28;20465;-81
2021/10/08 10:51:10;;;;;;;14.30;6.60;;;;;;;21.81;26.97;99531.75;5080718;28;20378;-82
2021/10/08 10:53:53;;;;;;;16.77;6.43;;;;;;;20.84;27.07;99541.28;5088308;28;20477;-82
2021/10/08 10:56:41;;;;;;;12.38;5.82;;;;;;;20.36;27.76;99536.56;5086652;28;20028;-81
2021/10/08 10:59:31;;;;;;;18.05;7.13;;;;;;;20.78;26.85;99533.63;5075474;28;20044;-81
2021/10/08 11:02:07;;;;;;;16.88;6.88;;;;;;;21.02;26.96;99541.53;5075741;28;20090;-81
2021/10/08 11:04:36;;;;;;;9.95;6.03;;;;;;;22.68;25.03;99530.94;5075662;28;20474;-81
2021/10/08 11:07:05;;;;;;;13.30;5.70;;;;;;;23.03;24.35;99535.19;5088285;28;20123;-81
2021/10/08 11:09:31;;;;;;;14.48;6.43;;;;;;;23.17;24.92;99532.44;5095825;28;20032;-81
2021/10/08 11:12:34;;;;;;;13.75;5.55;;;;;;;22.54;25.15;99533.63;5095814;28;20067;-81
2021/10/08 11:15:19;;;;;;;13.80;5.53;;;;;;;23.03;23.72;99535.19;5095756;28;20039;-82
2021/10/08 11:17:57;;;;;;;10.98;5.50;;;;;;;23.64;23.06;99526.63;5075697;28;20042;-82
2021/10/08 11:20:26;;;;;;;10.38;4.95;;;;;;;23.42;24.57;99533.38;5075705;28;20037;-82
2021/10/08 11:22:53;;;;;;;12.68;4.75;;;;;;;23.20;23.95;99526.84;5074602;28;20398;-81
2021/10/08 11:25:19;;;;;;;14.23;5.88;;;;;;;22.23;24.23;99533.38;5075765;28;20033;-81
2021/10/08 11:27:50;;;;;;;15.40;5.50;;;;;;;21.83;24.69;99529.38;5095984;28;20464;-81
2021/10/08 11:30:17;;;;;;;12.82;5.95;;;;;;;22.60;23.91;99523.72;5093880;28;20028;-81
2021/10/08 11:32:52;;;;;;;11.20;4.97;;;;;;;23.49;23.76;99522.19;5095677;28;20028;-81
2021/10/08 11:35:29;;;;;;;12.55;5.65;;;;;;;23.32;24.00;99518.09;5095362;28;20116;-81
2021/10/08 11:37:55;;;;;;;14.35;5.15;;;;;;;23.49;24.11;99525.00;5075145;28;20027;-82